Weather reports worldwide

Advertisment
Reinosa, Spain (8032): temperature & dewpoint: 16.02.2019 22:00:00 - 22.02.2019 22:00:00 (CET)Reinosa, Spain (8032): wind speed & gusts: 16.02.2019 22:00:00 - 22.02.2019 22:00:00 (CET)Reinosa, Spain (8032): wind direction: 16.02.2019 22:00:00 - 22.02.2019 22:00:00 (CET)Reinosa, Spain (8032): precipitation: 16.02.2019 22:00:00 - 22.02.2019 22:00:00 (CET)
Date & Time tt [°C] td [°C] ff [km/h] ff [kn] fx [km/h] fx [kn] dd rr [mm]
22.02.2019 22:00:00 2,9 -3,9 7 4 11 6 E 0,0
22.02.2019 21:00:00 5,0 -4,5 5 3 9 5 ENE 0,0
22.02.2019 20:00:00 9,1 -6,0 4 2 20 11 SE 0,0
22.02.2019 19:00:00 13,4 -5,7 10 6 26 14 SSE -
22.02.2019 18:00:00 15,3 -4,8 13 7 26 14 SSE 0,0
22.02.2019 17:00:00 16,7 -3,9 16 9 27 15 SSE 0,0
22.02.2019 16:00:00 17,2 -3,0 15 8 37 20 SE 0,0
22.02.2019 15:00:00 17,1 -2,5 22 12 45 24 SE 0,0
22.02.2019 14:00:00 16,7 -2,0 18 10 37 20 SE 0,0
22.02.2019 13:00:00 15,5 -1,7 16 9 35 19 SSE -
22.02.2019 12:00:00 14,2 0,4 14 8 29 16 SSE 0,0
22.02.2019 11:00:00 9,9 0,4 1 1 9 5 NE 0,0
22.02.2019 10:00:00 6,4 0,9 4 2 9 5 NE 0,0
22.02.2019 09:00:00 0,2 -2,5 1 1 7 4 NE 0,0
22.02.2019 08:00:00 -1,7 -4,8 3 2 9 5 NNE 0,0
22.02.2019 07:00:00 -0,4 -4,5 3 2 10 6 NE -
22.02.2019 06:00:00 1,8 -3,6 3 2 12 6 ENE 0,0
22.02.2019 05:00:00 3,9 -3,3 5 3 14 7 NE 0,0
22.02.2019 04:00:00 5,2 -3,9 5 3 13 7 NE 0,0
22.02.2019 03:00:00 9,0 -3,6 5 3 17 9 SE 0,0
22.02.2019 02:00:00 10,7 -2,5 3 1 13 7 ENE 0,0
22.02.2019 01:00:00 10,5 -3,0 7 4 16 8 E -
22.02.2019 00:00:00 10,4 -2,7 8 4 25 14 E 0,0
21.02.2019 23:00:00 11,5 -2,7 13 7 31 17 ESE 0,0
21.02.2019 22:00:00 12,1 -3,3 17 9 33 18 ESE 0,0
21.02.2019 21:00:00 10,9 -2,5 15 8 39 21 ESE 0,0
21.02.2019 20:00:00 10,0 -3,3 9 5 23 12 ESE 0,0
21.02.2019 19:00:00 11,5 -2,7 13 7 45 24 SE -
21.02.2019 18:00:00 12,9 -2,7 12 7 33 18 SSE 0,0
21.02.2019 17:00:00 13,9 -1,0 16 9 33 18 ESE 0,0
21.02.2019 16:00:00 14,0 0,0 10 6 33 18 SE 0,0
21.02.2019 15:00:00 13,6 0,9 19 11 39 21 SSE 0,0
21.02.2019 14:00:00 13,7 1,3 14 8 34 18 SE 0,0
21.02.2019 13:00:00 13,3 1,1 16 9 35 19 SSE -
21.02.2019 12:00:00 12,4 -0,3 14 8 37 20 SE 0,0
21.02.2019 11:00:00 11,8 0,6 13 7 27 15 SE 0,0
21.02.2019 10:00:00 9,4 2,3 13 7 34 18 SSE 0,0
21.02.2019 09:00:00 4,5 0,2 5 3 27 14 ESE 0,0
21.02.2019 08:00:00 -1,3 -3,9 5 3 13 7 NNE 0,0
21.02.2019 07:00:00 -3,0 -5,7 4 2 10 5 NE -
21.02.2019 06:00:00 -3,0 -6,4 3 2 11 6 ENE 0,0
21.02.2019 05:00:00 -2,5 -6,0 1 1 10 5 NNE 0,0
21.02.2019 04:00:00 -2,4 -6,0 3 2 10 5 E 0,0
21.02.2019 03:00:00 -2,1 -6,0 4 2 8 4 NNE 0,0
21.02.2019 02:00:00 -2,0 -5,7 1 1 11 6 E 0,0
21.02.2019 01:00:00 -0,8 -4,8 5 3 8 4 ENE -
21.02.2019 00:00:00 -1,1 -5,1 5 3 11 6 ENE 0,0
20.02.2019 23:00:00 0,4 -3,9 4 2 6 4 E 0,0
20.02.2019 22:00:00 2,1 -3,3 2 1 11 6 NE 0,0
20.02.2019 21:00:00 5,7 -3,6 6 3 29 16 ESE 0,0
20.02.2019 20:00:00 7,7 -1,7 14 8 29 15 ESE 0,0
20.02.2019 19:00:00 8,2 -3,6 16 9 32 17 SSE -
20.02.2019 18:00:00 9,9 -2,7 16 9 35 19 SSE 0,0
20.02.2019 17:00:00 10,8 -3,0 18 10 33 18 SE 0,0
20.02.2019 16:00:00 11,5 -1,7 19 10 37 20 SE 0,0
20.02.2019 15:00:00 11,5 -0,7 22 12 42 23 SE 0,0
20.02.2019 14:00:00 11,1 0,4 22 12 42 23 SE 0,0
20.02.2019 13:00:00 10,8 1,1 19 11 40 22 SE -
20.02.2019 12:00:00 10,5 0,4 19 10 36 19 SE 0,0
20.02.2019 11:00:00 7,9 3,6 14 8 26 14 SSE 0,0
20.02.2019 10:00:00 5,1 3,0 19 10 29 16 SSE 0,0
20.02.2019 09:00:00 3,8 2,7 17 9 25 14 SSE 0,0
20.02.2019 08:00:00 3,4 2,3 17 9 26 14 S 0,0
20.02.2019 07:00:00 3,4 1,5 16 9 22 12 SSE -
20.02.2019 06:00:00 3,9 1,7 14 8 22 12 S 0,0
20.02.2019 05:00:00 3,2 1,9 10 5 17 9 ESE 0,0
20.02.2019 04:00:00 3,3 1,9 10 6 16 9 ESE 0,0
20.02.2019 03:00:00 3,3 1,9 3 1 20 11 ENE 0,0
20.02.2019 02:00:00 4,2 2,1 14 8 20 11 SSE 0,0
20.02.2019 01:00:00 4,3 2,1 7 4 16 9 SSE -
20.02.2019 00:00:00 4,4 2,1 8 4 13 7 SE 0,0
19.02.2019 23:00:00 4,8 1,9 6 3 9 5 SE 0,0
19.02.2019 22:00:00 3,5 0,9 1 1 10 5 ENE 0,0
19.02.2019 21:00:00 5,5 1,1 2 1 11 6 E 0,0
19.02.2019 20:00:00 8,0 1,9 5 3 21 11 SE 0,0
19.02.2019 19:00:00 8,9 2,1 9 5 29 15 SSE -
19.02.2019 18:00:00 8,8 2,1 5 3 33 18 SE 0,0
19.02.2019 17:00:00 9,1 2,3 10 6 24 13 SSE 0,0
19.02.2019 16:00:00 8,9 1,7 15 8 24 13 SSE 0,0
19.02.2019 15:00:00 8,3 2,9 10 5 19 10 SSE 0,0
19.02.2019 14:00:00 6,0 2,5 6 4 15 8 SE 0,0
19.02.2019 13:00:00 6,0 3,2 5 3 11 6 E -
19.02.2019 12:00:00 4,7 2,9 1 1 4 2 SE 0,0
19.02.2019 11:00:00 3,5 2,5 2 1 5 3 E 0,0
19.02.2019 10:00:00 2,6 1,5 0 0 2 1 NE 0,0
19.02.2019 09:00:00 2,3 1,3 1 0 3 2 N 0,0
19.02.2019 08:00:00 2,2 1,3 1 0 4 2 ESE 0,2
19.02.2019 07:00:00 2,1 1,1 1 1 4 2 SSE -
19.02.2019 06:00:00 2,0 1,1 3 1 7 4 E 1,3
19.02.2019 05:00:00 2,2 1,3 4 2 8 4 NE 0,8
19.02.2019 04:00:00 2,6 1,5 0 0 5 3 E 0,5
19.02.2019 03:00:00 2,7 1,3 2 1 6 3 ESE 0,1
19.02.2019 02:00:00 2,7 1,1 2 1 12 6 SSE 0,3
19.02.2019 01:00:00 3,2 1,5 2 1 11 6 NE -
19.02.2019 00:00:00 3,8 1,7 7 4 11 6 ENE 0,0
18.02.2019 23:00:00 5,0 2,5 3 1 11 6 NNE 0,0
18.02.2019 22:00:00 5,4 2,9 9 5 15 8 N 0,0
18.02.2019 21:00:00 6,3 3,8 3 2 16 8 NNE 0,0
18.02.2019 20:00:00 6,4 4,6 9 5 16 9 E 0,0
18.02.2019 19:00:00 6,5 5,5 11 6 26 14 NE -
18.02.2019 18:00:00 7,9 5,8 14 8 24 13 E 0,0
18.02.2019 17:00:00 12,4 0,4 5 3 23 12 SE 0,0
18.02.2019 16:00:00 11,5 0,6 10 5 31 17 SSE 0,0
18.02.2019 15:00:00 11,1 0,4 15 8 31 17 SSE 0,0
18.02.2019 14:00:00 10,8 0,2 12 7 30 16 SSE 0,0
18.02.2019 13:00:00 10,1 -0,5 17 9 31 17 S -
18.02.2019 12:00:00 8,1 0,0 15 8 22 12 SE 0,0
18.02.2019 11:00:00 6,0 -0,5 11 6 18 10 SSE 0,0
18.02.2019 10:00:00 4,8 0,4 6 4 12 7 ESE 0,0
18.02.2019 09:00:00 1,6 -1,2 2 1 7 4 NNE 0,0
18.02.2019 08:00:00 3,0 -1,4 4 2 23 13 E 0,0
18.02.2019 07:00:00 3,9 -1,0 10 5 20 11 SE -
18.02.2019 06:00:00 3,6 -1,4 13 7 19 10 ESE 0,0
18.02.2019 05:00:00 3,5 -2,0 8 4 15 8 ESE 0,0
18.02.2019 04:00:00 2,6 -3,3 5 3 11 6 NE 0,0
18.02.2019 03:00:00 4,4 -3,6 5 3 17 9 SSE 0,0
18.02.2019 02:00:00 5,5 -4,5 14 7 23 12 S 0,0
18.02.2019 01:00:00 7,6 -3,9 13 7 27 15 SSE -
18.02.2019 00:00:00 2,6 -3,0 5 3 9 5 NNE 0,0
17.02.2019 23:00:00 2,8 -3,0 3 2 12 6 NE 0,0
17.02.2019 22:00:00 1,7 -4,5 1 1 10 6 ENE 0,0
17.02.2019 21:00:00 2,7 -4,2 4 2 6 3 NE 0,0
17.02.2019 20:00:00 5,1 -3,9 1 1 8 5 E 0,0
17.02.2019 19:00:00 10,1 -3,9 4 2 11 6 SSE -
17.02.2019 18:00:00 13,3 -2,7 5 3 23 12 SSE 0,0
17.02.2019 17:00:00 13,3 -2,7 14 8 29 16 S 0,0
17.02.2019 16:00:00 13,3 -2,2 16 9 28 15 SSE 0,0
17.02.2019 15:00:00 13,8 -1,4 16 9 32 17 SSE 0,0
17.02.2019 14:00:00 13,8 -1,0 14 8 32 17 SSE 0,0
17.02.2019 13:00:00 13,3 0,2 13 7 35 19 SSE -
17.02.2019 12:00:00 11,1 -1,0 14 8 29 16 SSE 0,0
17.02.2019 11:00:00 10,0 -0,7 10 6 29 15 SSE 0,0
17.02.2019 10:00:00 8,2 -1,7 9 5 28 15 SSE 0,0
17.02.2019 09:00:00 6,0 -3,6 17 9 31 17 SE 0,0
17.02.2019 08:00:00 6,0 -4,2 19 10 40 21 SE 0,0
17.02.2019 07:00:00 7,3 -3,3 18 10 39 21 SSE -
17.02.2019 06:00:00 7,7 -3,3 18 10 35 19 SSE 0,0
17.02.2019 05:00:00 8,9 -3,0 9 5 22 12 ESE 0,0
17.02.2019 04:00:00 8,6 -2,5 4 2 16 9 NE 0,0
17.02.2019 03:00:00 5,2 -2,7 5 3 13 7 NNE 0,0
17.02.2019 02:00:00 6,4 -2,7 11 6 21 11 SSE 0,0
17.02.2019 01:00:00 7,2 -3,3 8 4 16 9 SSE -
17.02.2019 00:00:00 8,0 -2,5 3 2 11 6 SE 0,0
16.02.2019 23:00:00 8,2 -1,4 8 4 21 12 ESE 0,0
16.02.2019 22:00:00 8,9 -1,2 14 8 19 10 SSE 0,0

tt = temperature
td = dewpoint
ff = wind speed
fx = gusts
dd = wind direction
rr = precipitation

Next stations